Time;durP1;ratioP1;P1;durP2;ratioP2;P2;SDS_P1;SDS_P2;PMS_P1;PMS_P2;Temp;Humidity;BMP_temperature;BMP_pressure;BME280_temperature;BME280_humidity;BME280_pressure;Samples;Min_cycle;Max_cycle;Signal;HPM_P1;HPM_P2
2022/12/13 00:01:25;;;;;;;4.35;2.45;;;;;;;-145.06;100.00;60892.56;5976350;23;20009;-89
2022/12/13 00:04:06;;;;;;;4.10;2.40;;;;;;;-145.06;100.00;60892.56;5976474;23;20000;-89
2022/12/13 00:06:45;;;;;;;5.13;2.87;;;;;;;-145.06;100.00;60892.56;5975270;23;20111;-88
2022/12/13 00:09:24;;;;;;;3.50;2.35;;;;;;;-145.06;100.00;60892.56;5976406;23;20016;-89
2022/12/13 00:12:03;;;;;;;4.93;2.73;;;;;;;-145.06;100.00;60892.56;5977751;23;20000;-89
2022/12/13 00:14:42;;;;;;;4.57;3.00;;;;;;;-145.06;100.00;60892.56;5989365;23;20024;-89
2022/12/13 00:17:21;;;;;;;4.10;2.47;;;;;;;-145.06;100.00;60892.56;6025332;23;20240;-90
2022/12/13 00:20:00;;;;;;;4.78;2.85;;;;;;;-145.06;100.00;60892.56;6009909;23;20009;-88
2022/12/13 00:22:39;;;;;;;5.30;2.70;;;;;;;-145.06;100.00;60892.56;6007926;23;20000;-89
2022/12/13 00:25:20;;;;;;;4.53;2.72;;;;;;;-145.06;100.00;60892.56;5975157;23;20012;-89
2022/12/13 00:27:59;;;;;;;4.67;2.27;;;;;;;-145.06;100.00;60892.56;5973931;23;20087;-88
2022/12/13 00:30:39;;;;;;;4.30;2.65;;;;;;;-145.06;100.00;60892.56;5973600;23;20008;-90
2022/12/13 00:33:18;;;;;;;3.88;2.28;;;;;;;-145.06;100.00;60892.56;5975103;23;20009;-90
2022/12/13 00:35:57;;;;;;;4.22;2.50;;;;;;;-145.06;100.00;60892.56;5974587;23;20044;-88
2022/12/13 00:38:37;;;;;;;3.53;2.35;;;;;;;-145.06;100.00;60892.56;5974886;23;20028;-89
2022/12/13 00:41:18;;;;;;;5.17;2.60;;;;;;;-145.06;100.00;60892.56;5974958;23;20005;-88
2022/12/13 00:43:58;;;;;;;5.27;2.43;;;;;;;-145.06;100.00;60892.56;5974822;23;20577;-90
2022/12/13 00:46:38;;;;;;;4.40;2.57;;;;;;;-145.06;100.00;60892.56;5974481;23;20100;-90
2022/12/13 00:49:17;;;;;;;4.68;3.20;;;;;;;-145.06;100.00;60892.56;5974449;23;20376;-90
2022/12/13 00:51:59;;;;;;;4.90;2.78;;;;;;;-145.06;100.00;60892.56;5973836;23;20521;-89
2022/12/13 00:54:38;;;;;;;4.50;2.60;;;;;;;-145.06;100.00;60892.56;6006700;23;20004;-90
2022/12/13 00:57:17;;;;;;;4.10;2.53;;;;;;;-145.06;100.00;60892.56;5974685;23;20008;-91
2022/12/13 00:59:56;;;;;;;4.50;2.58;;;;;;;-145.06;100.00;60892.56;5973053;23;20004;-89
2022/12/13 01:02:35;;;;;;;5.43;3.15;;;;;;;-145.06;100.00;60892.56;5974273;23;20043;-88
2022/12/13 01:05:13;;;;;;;3.63;2.37;;;;;;;-145.06;100.00;60892.56;5974194;23;20016;-90
2022/12/13 01:07:52;;;;;;;5.70;3.10;;;;;;;-145.06;100.00;60892.56;5973674;23;20240;-88
2022/12/13 01:10:31;;;;;;;6.15;2.80;;;;;;;-145.06;100.00;60892.56;5974360;23;20698;-89
2022/12/13 01:13:12;;;;;;;3.35;2.28;;;;;;;-145.06;100.00;60892.56;5973515;23;20485;-89
2022/12/13 01:15:50;;;;;;;3.83;2.20;;;;;;;-145.06;100.00;60892.56;5972540;23;20091;-89
2022/12/13 01:18:30;;;;;;;4.20;2.22;;;;;;;-145.06;100.00;60892.56;5973244;23;20043;-90
2022/12/13 01:21:15;;;;;;;5.80;2.63;;;;;;;-145.06;100.00;60892.56;5995545;23;20084;-89
2022/12/13 01:24:00;;;;;;;4.83;2.60;;;;;;;-145.06;100.00;60892.56;5973724;23;20216;-89
2022/12/13 01:26:39;;;;;;;4.10;2.53;;;;;;;-145.06;100.00;60892.56;5973428;23;20004;-89
2022/12/13 01:29:19;;;;;;;4.88;2.55;;;;;;;-145.06;100.00;60892.56;5972772;23;20004;-90
2022/12/13 01:31:58;;;;;;;4.93;2.27;;;;;;;-145.06;100.00;60892.56;5973863;23;20009;-89
2022/12/13 01:34:37;;;;;;;5.03;2.85;;;;;;;-145.06;100.00;60892.56;5973312;23;20008;-90
2022/12/13 01:37:16;;;;;;;4.05;2.40;;;;;;;-145.06;100.00;60892.56;5973482;23;20308;-88
2022/12/13 01:39:55;;;;;;;3.50;2.20;;;;;;;-145.06;100.00;60892.56;5972884;23;20036;-90
2022/12/13 01:42:37;;;;;;;4.80;2.55;;;;;;;-145.06;100.00;60892.56;6006196;23;20521;-89
2022/12/13 01:45:25;;;;;;;4.60;2.60;;;;;;;-145.06;100.00;60892.56;5973116;23;20009;-89
2022/12/13 01:48:10;;;;;;;4.07;2.33;;;;;;;-145.06;100.00;60892.56;5972886;23;20099;-89
2022/12/13 01:50:54;;;;;;;3.70;2.17;;;;;;;-145.06;100.00;60892.56;5974223;23;20008;-88
2022/12/13 01:53:39;;;;;;;4.80;2.53;;;;;;;-145.06;100.00;60892.56;5974208;23;20312;-89
2022/12/13 01:56:42;;;;;;;4.33;1.93;;;;;;;-145.06;100.00;60892.56;5973385;23;20009;-89
2022/12/13 01:59:22;;;;;;;2.90;1.97;;;;;;;-145.06;100.00;60892.56;5973777;23;20032;-87
2022/12/13 02:02:00;;;;;;;4.05;2.33;;;;;;;-145.06;100.00;60892.56;5974049;23;20083;-88
2022/12/13 02:04:44;;;;;;;4.32;2.47;;;;;;;-145.06;100.00;60892.56;5974367;23;20000;-89
2022/12/13 02:07:28;;;;;;;3.23;2.23;;;;;;;-145.06;100.00;60892.56;5975429;23;20008;-88
2022/12/13 02:10:08;;;;;;;3.50;2.27;;;;;;;-145.06;100.00;60892.56;5994126;23;20020;-90
2022/12/13 02:12:47;;;;;;;3.60;2.00;;;;;;;-145.06;100.00;60892.56;5993669;23;20192;-89
2022/12/13 02:15:38;;;;;;;2.80;1.70;;;;;;;-145.06;100.00;60892.56;5982420;23;20012;-88
2022/12/13 02:18:32;;;;;;;3.20;2.10;;;;;;;-145.06;100.00;60892.56;5973916;23;20008;-89
2022/12/13 02:21:28;;;;;;;3.80;2.33;;;;;;;-145.06;100.00;60892.56;5973222;23;20001;-89
2022/12/13 02:24:43;;;;;;;3.73;2.30;;;;;;;-145.06;100.00;60892.56;5973747;23;20032;-88
2022/12/13 02:28:01;;;;;;;3.33;2.10;;;;;;;-145.06;100.00;60892.56;5974311;23;20068;-90
2022/12/13 02:30:44;;;;;;;3.43;2.30;;;;;;;-145.06;100.00;60892.56;5950886;23;20004;-89
2022/12/13 02:33:26;;;;;;;4.13;2.43;;;;;;;-145.06;100.00;60892.56;5975031;23;20060;-89
2022/12/13 02:36:28;;;;;;;3.97;2.80;;;;;;;-145.06;100.00;60892.56;5975310;23;20439;-90
2022/12/13 02:39:20;;;;;;;4.57;2.10;;;;;;;-145.06;100.00;60892.56;5978808;23;20028;-89
2022/12/13 02:42:15;;;;;;;2.80;2.00;;;;;;;-145.06;100.00;60892.56;5986253;23;20013;-89
2022/12/13 02:45:08;;;;;;;3.17;2.20;;;;;;;-145.06;100.00;60892.56;5990608;23;20012;-89
2022/12/13 02:47:51;;;;;;;4.43;2.23;;;;;;;-145.06;100.00;60892.56;5976689;23;20036;-89
2022/12/13 02:50:31;;;;;;;3.67;2.10;;;;;;;-145.06;100.00;60892.56;5975298;23;20012;-88
2022/12/13 02:53:12;;;;;;;3.23;1.93;;;;;;;-145.06;100.00;60892.56;5975995;23;20589;-88
2022/12/13 02:55:52;;;;;;;4.27;2.33;;;;;;;-145.06;100.00;60892.56;5975066;23;20008;-88
2022/12/13 02:58:38;;;;;;;4.10;2.45;;;;;;;-145.06;100.00;60892.56;5975436;23;20084;-89
2022/12/13 03:01:28;;;;;;;3.43;2.20;;;;;;;-145.06;100.00;60892.56;5975251;23;20442;-87
2022/12/13 03:04:30;;;;;;;4.53;2.70;;;;;;;-145.06;100.00;60892.56;6007763;23;20511;-91
2022/12/13 03:07:25;;;;;;;4.33;2.40;;;;;;;-145.06;100.00;60892.56;5974901;23;20325;-88
2022/12/13 03:10:38;;;;;;;4.43;2.30;;;;;;;-145.06;100.00;60892.56;5975082;23;20437;-89
2022/12/13 03:13:35;;;;;;;2.97;1.87;;;;;;;-145.06;100.00;60892.56;5976053;23;20065;-89
2022/12/13 03:16:35;;;;;;;3.63;2.30;;;;;;;-145.06;100.00;60892.56;5974485;23;20259;-89
2022/12/13 03:19:14;;;;;;;2.97;1.90;;;;;;;-145.06;100.00;60892.56;5975007;23;20012;-90
2022/12/13 03:21:53;;;;;;;4.35;2.17;;;;;;;-145.06;100.00;60892.56;5975043;23;20013;-89
2022/12/13 03:24:32;;;;;;;3.13;2.00;;;;;;;-145.06;100.00;60892.56;5975709;23;20001;-90
2022/12/13 03:27:12;;;;;;;3.57;2.10;;;;;;;-145.06;100.00;60892.56;6007110;23;20240;-89
2022/12/13 03:29:51;;;;;;;3.47;2.30;;;;;;;-145.06;100.00;60892.56;5974701;23;20236;-89
2022/12/13 03:32:30;;;;;;;3.15;1.88;;;;;;;-145.06;100.00;60892.56;5975120;23;20013;-88
2022/12/13 03:35:09;;;;;;;3.33;2.15;;;;;;;-145.06;100.00;60892.56;5973947;23;20799;-90
2022/12/13 03:37:49;;;;;;;2.55;1.73;;;;;;;-145.06;100.00;60892.56;5975501;23;20040;-89
2022/12/13 03:40:29;;;;;;;3.72;2.05;;;;;;;-145.06;100.00;60892.56;5973841;23;20008;-89
2022/12/13 03:43:08;;;;;;;3.60;2.23;;;;;;;-145.06;100.00;60892.56;5974107;23;20005;-88
2022/12/13 03:45:47;;;;;;;5.05;2.30;;;;;;;-145.06;100.00;60892.56;5973690;23;20004;-90
2022/12/13 03:48:26;;;;;;;4.18;2.45;;;;;;;-145.06;100.00;60892.56;5973873;23;20012;-89
2022/12/13 03:51:05;;;;;;;3.05;2.08;;;;;;;-145.06;100.00;60892.56;5974790;23;20016;-88
2022/12/13 03:53:44;;;;;;;4.57;2.65;;;;;;;-145.06;100.00;60892.56;6006212;23;20224;-88
2022/12/13 03:56:23;;;;;;;3.83;2.17;;;;;;;-145.06;100.00;60892.56;5975053;23;20447;-90
2022/12/13 03:59:02;;;;;;;4.18;2.40;;;;;;;-145.06;100.00;60892.56;5974002;23;20005;-88
2022/12/13 04:01:41;;;;;;;3.78;2.28;;;;;;;-145.06;100.00;60892.56;5973865;23;20012;-88
2022/12/13 04:04:20;;;;;;;4.53;2.50;;;;;;;-145.06;100.00;60892.56;5974274;23;20009;-88
2022/12/13 04:06:59;;;;;;;4.43;2.47;;;;;;;-145.06;100.00;60892.56;5974927;23;20001;-90
2022/12/13 04:09:38;;;;;;;4.95;2.63;;;;;;;-145.06;100.00;60892.56;5973469;23;20005;-90
2022/12/13 04:15:15;;;;;;;5.07;2.90;;;;;;;-145.06;100.00;60892.56;6006269;23;20044;-87
2022/12/13 04:17:54;;;;;;;5.53;3.00;;;;;;;-145.06;100.00;60892.56;5998643;23;20323;-89
2022/12/13 04:20:33;;;;;;;5.82;3.10;;;;;;;-145.06;100.00;60892.56;6004013;23;20008;-89
2022/12/13 04:23:12;;;;;;;4.30;2.90;;;;;;;-145.06;100.00;60892.56;6003619;23;20133;-88
2022/12/13 04:25:51;;;;;;;6.35;3.88;;;;;;;-145.06;100.00;60892.56;6002637;23;20004;-90
2022/12/13 04:28:30;;;;;;;6.93;3.92;;;;;;;-145.06;100.00;60892.56;6002627;23;20012;-89
2022/12/13 04:31:09;;;;;;;8.07;4.50;;;;;;;-145.06;100.00;60892.56;6001895;23;20008;-88
2022/12/13 04:33:48;;;;;;;8.70;4.70;;;;;;;-145.06;100.00;60892.56;6002666;23;20000;-89
2022/12/13 04:36:27;;;;;;;8.52;4.63;;;;;;;-145.06;100.00;60892.56;6003037;22;20236;-89
2022/12/13 04:39:06;;;;;;;10.48;5.18;;;;;;;-145.06;100.00;60892.56;6002433;23;20008;-89
2022/12/13 04:41:45;;;;;;;11.68;5.90;;;;;;;-145.06;100.00;60892.56;6003569;23;20383;-90
2022/12/13 04:44:24;;;;;;;12.85;6.43;;;;;;;-145.06;100.00;60892.56;6003638;23;20035;-89
2022/12/13 04:47:04;;;;;;;10.07;5.20;;;;;;;-145.06;100.00;60892.56;6002552;23;20025;-89
2022/12/13 04:49:43;;;;;;;10.67;5.70;;;;;;;-145.06;100.00;60892.56;6036418;23;20004;-89
2022/12/13 04:52:22;;;;;;;11.55;5.93;;;;;;;-145.06;100.00;60892.56;6005842;23;20078;-89
2022/12/13 04:55:01;;;;;;;10.88;5.60;;;;;;;-145.06;100.00;60892.56;6002708;23;20591;-88
2022/12/13 04:57:40;;;;;;;14.55;7.50;;;;;;;-145.06;100.00;60892.56;6007039;23;20004;-91
2022/12/13 05:00:21;;;;;;;16.52;7.93;;;;;;;-145.06;100.00;60892.56;6007264;23;20091;-90
2022/12/13 05:02:59;;;;;;;15.73;7.63;;;;;;;-145.06;100.00;60892.56;6004528;23;20004;-89
2022/12/13 05:05:39;;;;;;;18.73;9.90;;;;;;;-145.06;100.00;60892.56;6004783;23;20008;-90
2022/12/13 05:08:18;;;;;;;16.98;9.35;;;;;;;-145.06;100.00;60892.56;6004508;23;20075;-89
2022/12/13 05:10:57;;;;;;;15.68;8.48;;;;;;;-145.06;100.00;60892.56;6005759;23;20328;-88
2022/12/13 05:13:36;;;;;;;16.23;8.88;;;;;;;-145.06;100.00;60892.56;6003216;23;20087;-90
2022/12/13 05:16:16;;;;;;;17.90;8.68;;;;;;;-145.06;100.00;60892.56;6030452;23;20008;-89
2022/12/13 05:18:54;;;;;;;18.80;9.07;;;;;;;-145.06;100.00;60892.56;5975245;23;20081;-89
2022/12/13 05:21:33;;;;;;;15.80;7.90;;;;;;;-145.06;100.00;60892.56;5975686;23;20694;-90
2022/12/13 05:24:16;;;;;;;12.85;6.32;;;;;;;-145.06;100.00;60892.56;5976793;23;20013;-92
2022/12/13 05:26:54;;;;;;;13.23;7.07;;;;;;;-145.06;100.00;60892.56;6000903;23;20451;-88
2022/12/13 05:29:35;;;;;;;13.02;6.75;;;;;;;-145.06;100.00;60892.56;5981386;23;20008;-89
2022/12/13 05:32:14;;;;;;;11.40;6.23;;;;;;;-145.06;100.00;60892.56;5979495;23;20004;-90
2022/12/13 05:34:53;;;;;;;11.27;6.82;;;;;;;-145.06;100.00;60892.56;5978103;23;20495;-89
2022/12/13 05:37:43;;;;;;;17.00;8.90;;;;;;;-145.06;100.00;60892.56;5978178;23;20004;-90
2022/12/13 05:43:58;;;;;;;14.70;7.43;;;;;;;-145.06;100.00;60892.56;5957832;23;20008;-90
2022/12/13 05:46:37;;;;;;;14.07;7.60;;;;;;;-145.06;100.00;60892.56;5977383;23;20514;-91
2022/12/13 05:49:16;;;;;;;12.38;6.85;;;;;;;-145.06;100.00;60892.56;5977211;23;20004;-89
2022/12/13 05:52:24;;;;;;;14.60;7.00;;;;;;;-145.06;100.00;60892.56;5978140;23;20104;-89
2022/12/13 05:55:15;;;;;;;11.50;6.13;;;;;;;-145.06;100.00;60892.56;5997118;23;20005;-90
2022/12/13 05:58:24;;;;;;;13.43;6.33;;;;;;;-145.06;100.00;60892.56;5976120;23;20012;-91
2022/12/13 06:04:29;;;;;;;14.07;6.63;;;;;;;-145.06;100.00;60892.56;5927880;23;20017;-89
2022/12/13 06:10:54;;;;;;;11.57;5.60;;;;;;;-145.06;100.00;60892.56;5917636;23;20012;-89
2022/12/13 06:13:33;;;;;;;10.03;5.43;;;;;;;-145.06;100.00;60892.56;5975619;23;20001;-89
2022/12/13 06:16:12;;;;;;;13.17;6.73;;;;;;;-145.06;100.00;60892.56;5976700;23;20017;-89
2022/12/13 06:18:52;;;;;;;13.38;6.55;;;;;;;-145.06;100.00;60892.56;5977875;23;20235;-90
2022/12/13 06:21:34;;;;;;;11.30;5.93;;;;;;;-145.06;100.00;60892.56;5998937;23;20009;-90
2022/12/13 06:24:16;;;;;;;12.20;6.07;;;;;;;-145.06;100.00;60892.56;5978254;23;20004;-89
2022/12/13 06:26:54;;;;;;;10.73;6.20;;;;;;;-145.06;100.00;60892.56;5979050;23;20016;-91
2022/12/13 06:29:34;;;;;;;11.30;6.07;;;;;;;-145.06;100.00;60892.56;5979048;23;20039;-89
2022/12/13 06:32:13;;;;;;;10.43;5.50;;;;;;;-145.06;100.00;60892.56;5979080;23;20040;-89
2022/12/13 06:34:52;;;;;;;11.77;5.13;;;;;;;-145.06;100.00;60892.56;5979464;23;20423;-89
2022/12/13 06:37:31;;;;;;;9.38;4.82;;;;;;;-145.06;100.00;60892.56;5979625;23;20008;-90
2022/12/13 06:40:10;;;;;;;11.30;5.47;;;;;;;-145.06;100.00;60892.56;5979813;23;20324;-89
2022/12/13 06:42:50;;;;;;;9.05;5.20;;;;;;;-145.06;100.00;60892.56;6001046;23;20008;-90
2022/12/13 06:45:29;;;;;;;11.45;5.40;;;;;;;-145.06;100.00;60892.56;5980711;23;20012;-91
2022/12/13 06:48:08;;;;;;;;;;;;;;;-145.06;100.00;60892.56;5980285;23;20004;-90
2022/12/13 06:50:47;;;;;;;9.35;5.20;;;;;;;-145.06;100.00;60892.56;5979285;23;19904;-91
2022/12/13 06:53:27;;;;;;;8.45;4.65;;;;;;;-145.06;100.00;60892.56;5979669;23;20001;-92
2022/12/13 06:56:09;;;;;;;8.70;4.40;;;;;;;-145.06;100.00;60892.56;5980213;23;20004;-88
2022/12/13 06:58:48;;;;;;;8.77;4.87;;;;;;;-145.06;100.00;60892.56;5979417;23;20005;-88
2022/12/13 07:01:29;;;;;;;11.82;5.65;;;;;;;-145.06;100.00;60892.56;5980034;23;20032;-90
2022/12/13 07:04:10;;;;;;;8.93;5.10;;;;;;;-145.06;100.00;60892.56;5979218;23;20009;-90
2022/12/13 07:06:49;;;;;;;9.00;5.20;;;;;;;-145.06;100.00;60892.56;5979539;23;20004;-89
2022/12/13 07:09:29;;;;;;;9.90;5.43;;;;;;;-145.06;100.00;60892.56;5979017;23;20079;-89
2022/12/13 07:12:08;;;;;;;9.17;5.10;;;;;;;-145.06;100.00;60892.56;5979524;23;20028;-89
2022/12/13 07:14:48;;;;;;;8.87;5.23;;;;;;;-145.06;100.00;60892.56;5979806;23;20076;-90
2022/12/13 07:17:27;;;;;;;9.07;5.03;;;;;;;-145.06;100.00;60892.56;6021154;23;20239;-88
2022/12/13 07:20:07;;;;;;;10.98;5.72;;;;;;;-145.06;100.00;60892.56;6008911;23;20039;-88
2022/12/13 07:22:51;;;;;;;9.20;4.70;;;;;;;-145.06;100.00;60892.56;6009439;23;20339;-88
2022/12/13 07:25:31;;;;;;;10.00;5.10;;;;;;;-145.06;100.00;60892.56;6009210;23;20308;-91
2022/12/13 07:28:10;;;;;;;11.63;5.15;;;;;;;-145.06;100.00;60892.56;6009352;23;20007;-92
2022/12/13 07:30:49;;;;;;;9.13;5.25;;;;;;;-145.06;100.00;60892.56;6009009;23;20008;-90
2022/12/13 07:33:28;;;;;;;9.07;5.28;;;;;;;-145.06;100.00;60892.56;6008448;23;19996;-89
2022/12/13 07:36:13;;;;;;;10.60;5.10;;;;;;;-145.06;100.00;60892.56;6008819;22;20008;-89
2022/12/13 07:38:54;;;;;;;9.30;5.23;;;;;;;-145.06;100.00;60892.56;6008296;23;20004;-90
2022/12/13 07:41:33;;;;;;;9.83;5.10;;;;;;;-145.06;100.00;60892.56;6008836;23;20008;-89
2022/12/13 07:44:12;;;;;;;10.60;5.65;;;;;;;-145.06;100.00;60892.56;6008488;23;20008;-89
2022/12/13 07:46:51;;;;;;;9.45;5.10;;;;;;;-145.06;100.00;60892.56;6008764;23;20008;-91
2022/12/13 07:49:30;;;;;;;9.35;5.00;;;;;;;-145.06;100.00;60892.56;6008495;23;20011;-89
2022/12/13 07:52:10;;;;;;;9.90;5.38;;;;;;;-145.06;100.00;60892.56;6008442;23;20008;-89
2022/12/13 07:54:49;;;;;;;;;;;;;;;-145.06;100.00;60892.56;6008851;23;20007;-89
2022/12/13 07:57:28;;;;;;;9.25;5.07;;;;;;;-145.06;100.00;60892.56;6008766;23;19903;-89
2022/12/13 08:00:07;;;;;;;8.07;4.43;;;;;;;-145.06;100.00;60892.56;6041355;23;20000;-88
2022/12/13 08:02:46;;;;;;;9.40;4.95;;;;;;;-145.06;100.00;60892.56;6008476;23;20231;-89
2022/12/13 08:05:25;;;;;;;11.15;5.20;;;;;;;-145.06;100.00;60892.56;6008573;23;20728;-88
2022/12/13 08:08:08;;;;;;;8.02;4.63;;;;;;;-145.06;100.00;60892.56;6008086;23;20031;-89
2022/12/13 08:10:48;;;;;;;9.60;5.50;;;;;;;-145.06;100.00;60892.56;6008742;23;20008;-89
2022/12/13 08:13:26;;;;;;;9.93;5.40;;;;;;;-145.06;100.00;60892.56;6008744;23;20001;-90
2022/12/13 08:16:09;;;;;;;9.50;5.45;;;;;;;-145.06;100.00;60892.56;6005022;23;20442;-89
2022/12/13 08:18:48;;;;;;;9.77;4.80;;;;;;;-145.06;100.00;60892.56;5979787;23;20009;-89
2022/12/13 08:21:26;;;;;;;9.25;5.00;;;;;;;-145.06;100.00;60892.56;5979778;23;20032;-88
2022/12/13 08:24:06;;;;;;;9.52;5.07;;;;;;;-145.06;100.00;60892.56;5979779;23;20043;-91
2022/12/13 08:26:48;;;;;;;9.10;4.80;;;;;;;-145.06;100.00;60892.56;5979591;23;20009;-89
2022/12/13 08:29:33;;;;;;;9.80;5.03;;;;;;;-145.06;100.00;60892.56;5979115;23;20474;-90
2022/12/13 08:32:23;;;;;;;9.77;5.20;;;;;;;-145.06;100.00;60892.56;5979729;23;20000;-89
2022/12/13 08:35:02;;;;;;;9.87;5.03;;;;;;;-145.06;100.00;60892.56;5979340;23;20418;-90
2022/12/13 08:37:42;;;;;;;9.05;4.95;;;;;;;-145.06;100.00;60892.56;5979666;23;20008;-89
2022/12/13 08:40:21;;;;;;;9.93;5.28;;;;;;;-145.06;100.00;60892.56;5978861;23;20009;-90
2022/12/13 08:43:00;;;;;;;10.93;5.50;;;;;;;-145.06;100.00;60892.56;5978938;23;20009;-89
2022/12/13 08:45:39;;;;;;;10.18;5.20;;;;;;;-145.06;100.00;60892.56;5978920;23;20008;-89
2022/12/13 08:48:24;;;;;;;11.93;6.20;;;;;;;-145.06;100.00;60892.56;5979225;23;20351;-90
2022/12/13 08:51:13;;;;;;;12.33;6.80;;;;;;;-145.06;100.00;60892.56;5978774;23;20009;-89
2022/12/13 08:53:52;;;;;;;13.73;7.30;;;;;;;-145.06;100.00;60892.56;5978826;23;20009;-88
2022/12/13 08:56:31;;;;;;;10.73;6.03;;;;;;;-145.06;100.00;60892.56;5979044;23;20012;-90
2022/12/13 08:59:10;;;;;;;12.27;6.15;;;;;;;-145.06;100.00;60892.56;6000230;23;20680;-89
2022/12/13 09:01:49;;;;;;;11.57;6.33;;;;;;;-145.06;100.00;60892.56;5978531;23;20036;-90
2022/12/13 09:04:33;;;;;;;10.90;5.80;;;;;;;-145.06;100.00;60892.56;5978960;23;20251;-89
2022/12/13 09:07:12;;;;;;;8.70;4.77;;;;;;;-145.06;100.00;60892.56;5979178;23;20679;-90
2022/12/13 09:09:51;;;;;;;8.53;5.20;;;;;;;-145.06;100.00;60892.56;5977812;23;20008;-89
2022/12/13 09:12:30;;;;;;;9.07;5.38;;;;;;;-145.06;100.00;60892.56;5979078;23;20236;-90
2022/12/13 09:15:09;;;;;;;11.48;6.10;;;;;;;-145.06;100.00;60892.56;6000583;23;20005;-90
2022/12/13 09:17:48;;;;;;;12.73;6.70;;;;;;;-145.06;100.00;60892.56;6016459;23;20013;-91
2022/12/13 09:20:27;;;;;;;16.25;7.80;;;;;;;-145.06;100.00;60892.56;6000259;23;20236;-89
2022/12/13 09:23:09;;;;;;;14.93;7.57;;;;;;;-145.06;100.00;60892.56;6000093;23;20071;-89
2022/12/13 09:25:53;;;;;;;12.40;6.30;;;;;;;-145.06;100.00;60892.56;6000946;23;20013;-88
2022/12/13 09:28:35;;;;;;;13.07;7.33;;;;;;;-145.06;100.00;60892.56;6000497;23;20032;-90
2022/12/13 09:31:19;;;;;;;10.80;6.63;;;;;;;-145.06;100.00;60892.56;5999742;23;20013;-90
2022/12/13 09:33:59;;;;;;;12.70;6.20;;;;;;;-145.06;100.00;60892.56;6000522;23;20024;-90
2022/12/13 09:36:38;;;;;;;13.63;6.38;;;;;;;-145.06;100.00;60892.56;6000328;23;20008;-90
2022/12/13 09:39:17;;;;;;;12.90;6.30;;;;;;;-145.06;100.00;60892.56;6000083;23;20320;-90
2022/12/13 09:41:57;;;;;;;14.65;7.45;;;;;;;-145.06;100.00;60892.56;5999574;23;20012;-89
2022/12/13 09:45:09;;;;;;;13.73;7.53;;;;;;;-145.06;100.00;60892.56;5999822;23;20040;-91
2022/12/13 09:47:50;;;;;;;16.87;8.43;;;;;;;-145.06;100.00;60892.56;5990312;23;20008;-89
2022/12/13 09:50:32;;;;;;;16.30;8.20;;;;;;;-145.06;100.00;60892.56;6000463;23;20004;-89
2022/12/13 09:53:15;;;;;;;14.53;7.47;;;;;;;-145.06;100.00;60892.56;6002815;23;20028;-89
2022/12/13 09:55:55;;;;;;;12.20;6.83;;;;;;;-145.06;100.00;60892.56;6002220;23;20012;-89
2022/12/13 09:58:35;;;;;;;11.00;6.10;;;;;;;-145.06;100.00;60892.56;6002242;23;20008;-90
2022/12/13 10:01:15;;;;;;;12.37;6.10;;;;;;;-145.06;100.00;60892.56;6002231;23;20235;-89
2022/12/13 10:03:58;;;;;;;10.83;5.73;;;;;;;-145.06;100.00;60892.56;6001445;23;20025;-90
2022/12/13 10:06:37;;;;;;;10.80;5.73;;;;;;;-145.06;100.00;60892.56;6001494;23;20012;-91
2022/12/13 10:09:28;;;;;;;9.80;5.73;;;;;;;-145.06;100.00;60892.56;6002655;23;20012;-90
2022/12/13 10:12:16;;;;;;;9.70;5.80;;;;;;;-145.06;100.00;60892.56;6001523;23;20008;-90
2022/12/13 10:15:01;;;;;;;9.20;4.83;;;;;;;-145.06;100.00;60892.56;6002251;23;20009;-89
2022/12/13 10:17:47;;;;;;;11.73;6.67;;;;;;;-145.06;100.00;60892.56;6001343;23;20012;-91
2022/12/13 10:20:50;;;;;;;11.20;6.20;;;;;;;-145.06;100.00;60892.56;6002499;23;20009;-89
2022/12/13 10:23:46;;;;;;;9.90;5.80;;;;;;;-145.06;100.00;60892.56;6002655;23;20009;-91
2022/12/13 10:26:52;;;;;;;10.93;6.03;;;;;;;-145.06;100.00;60892.56;6002217;23;20008;-91
2022/12/13 10:30:15;;;;;;;9.70;5.33;;;;;;;-145.06;100.00;60892.56;6001744;23;20032;-89
2022/12/13 10:33:24;;;;;;;10.43;5.77;;;;;;;-145.06;100.00;60892.56;6002248;23;20004;-90
2022/12/13 10:36:35;;;;;;;10.40;5.77;;;;;;;-145.06;100.00;60892.56;6001823;23;20032;-90
2022/12/13 14:40:17;;;;;;;4.90;2.80;;;;;;;-145.06;100.00;60892.56;6034613;22;20421;-92
2022/12/13 14:43:25;;;;;;;5.20;3.08;;;;;;;-145.06;100.00;60892.56;6014873;23;20000;-91
2022/12/13 14:46:32;;;;;;;4.90;2.80;;;;;;;-145.06;100.00;60892.56;6011823;22;20004;-92
2022/12/13 15:29:28;;;;;;;;;;;;;;;;;;;;;
2022/12/13 18:12:30;;;;;;;13.55;6.75;;;;;;;-145.06;100.00;60892.56;6003836;23;20079;-91
2022/12/13 18:25:06;;;;;;;17.27;8.65;;;;;;;-145.06;100.00;60892.56;5904706;23;20014;-90
2022/12/13 18:27:55;;;;;;;16.58;7.40;;;;;;;-145.06;100.00;60892.56;5869016;23;20029;-91
2022/12/13 18:30:37;;;;;;;16.35;6.95;;;;;;;-145.06;100.00;60892.56;5866533;23;20007;-92
2022/12/13 18:33:16;;;;;;;11.45;5.90;;;;;;;-145.06;100.00;60892.56;5867913;23;20002;-91
2022/12/13 18:38:34;;;;;;;10.05;5.50;;;;;;;-145.06;100.00;60892.56;6031057;22;20085;-90
2022/12/13 18:41:30;;;;;;;;;;;;;;;;;;;;;
2022/12/13 18:45:15;;;;;;;9.25;5.30;;;;;;;-145.06;100.00;60892.56;6044721;23;20087;-92
2022/12/13 18:55:48;;;;;;;10.15;5.85;;;;;;;-145.06;100.00;60892.56;6038566;22;20019;-90
2022/12/13 18:58:40;;;;;;;8.73;4.80;;;;;;;-145.06;100.00;60892.56;5981771;23;20310;-91
2022/12/13 19:01:35;;;;;;;9.43;5.03;;;;;;;-145.06;100.00;60892.56;5982209;23;20431;-92
2022/12/13 19:04:40;;;;;;;7.78;4.78;;;;;;;-145.06;100.00;60892.56;5981520;23;20435;-91
2022/12/13 19:08:10;;;;;;;;;;;;;;;;;;;;;
2022/12/13 19:11:02;;;;;;;7.97;4.53;;;;;;;-145.06;100.00;60892.56;5877763;23;20034;-91
2022/12/13 19:14:42;;;;;;;8.40;4.40;;;;;;;-145.06;100.00;60892.56;5981793;23;20411;-94
2022/12/13 19:17:21;;;;;;;;;;;;;;;-145.06;100.00;60892.56;5915785;23;20010;-92
2022/12/13 19:20:46;;;;;;;6.63;3.65;;;;;;;-145.06;100.00;60892.56;5894118;23;20107;-90
2022/12/13 19:23:39;;;;;;;5.53;3.22;;;;;;;-145.06;100.00;60892.56;5897154;23;20464;-91
2022/12/13 19:26:21;;;;;;;5.72;3.28;;;;;;;-145.06;100.00;60892.56;5892249;23;20006;-90
2022/12/13 19:29:19;;;;;;;6.55;3.95;;;;;;;-145.06;100.00;60892.56;5963538;23;20490;-91
2022/12/13 19:32:02;;;;;;;6.32;3.95;;;;;;;-145.06;100.00;60892.56;5980359;23;20064;-89
2022/12/13 19:35:12;;;;;;;;;;;;;;;;;;;;;
2022/12/13 19:38:05;;;;;;;6.13;3.72;;;;;;;-145.06;100.00;60892.56;6024209;22;20008;-91
2022/12/13 20:17:51;;;;;;;;;;;;;;;;;;;;;
2022/12/13 20:27:36;;;;;;;7.15;3.50;;;;;;;-145.06;100.00;60892.56;6006399;22;20020;-90
2022/12/13 20:30:18;;;;;;;6.63;3.03;;;;;;;-145.06;100.00;60892.56;6029236;23;20040;-91
2022/12/13 20:32:58;;;;;;;4.60;2.85;;;;;;;-145.06;100.00;60892.56;6029317;23;20008;-91
2022/12/13 20:35:40;;;;;;;5.28;3.30;;;;;;;-145.06;100.00;60892.56;6029444;23;20438;-90
2022/12/13 20:38:19;;;;;;;6.40;3.58;;;;;;;-145.06;100.00;60892.56;6029257;23;20008;-91
2022/12/13 20:41:11;;;;;;;5.47;2.87;;;;;;;-145.06;100.00;60892.56;6030061;23;20008;-90
2022/12/13 20:43:51;;;;;;;5.45;3.28;;;;;;;-145.06;100.00;60892.56;6052524;22;20202;-90
2022/12/13 20:46:31;;;;;;;7.55;3.55;;;;;;;-145.06;100.00;60892.56;6041043;22;20016;-89
2022/12/13 20:49:10;;;;;;;;;;;;;;;-145.06;100.00;60892.56;6029754;23;20490;-90
2022/12/13 20:51:50;;;;;;;4.93;2.83;;;;;;;-145.06;100.00;60892.56;6027398;23;19927;-89
2022/12/13 20:54:29;;;;;;;5.45;2.85;;;;;;;-145.06;100.00;60892.56;6027645;23;20000;-89
2022/12/13 20:57:08;;;;;;;4.70;2.70;;;;;;;-145.06;100.00;60892.56;6029207;22;20011;-89
2022/12/13 20:59:48;;;;;;;4.65;2.80;;;;;;;-145.06;100.00;60892.56;6029428;23;20008;-90
2022/12/13 21:02:27;;;;;;;4.05;2.28;;;;;;;-145.06;100.00;60892.56;6029810;23;20308;-90
2022/12/13 21:05:06;;;;;;;4.33;2.97;;;;;;;-145.06;100.00;60892.56;6029844;23;20004;-89
2022/12/13 21:10:43;;;;;;;5.57;3.10;;;;;;;-145.06;100.00;60892.56;6041536;23;20012;-90
2022/12/13 21:13:22;;;;;;;5.82;3.55;;;;;;;-145.06;100.00;60892.56;6030300;23;20419;-91